createdAt,value
2023-01-19T00:00:14.550Z,48
2023-01-19T00:05:14.604Z,48
2023-01-19T00:10:16.434Z,48
2023-01-19T00:15:16.562Z,47
2023-01-19T00:20:28.917Z,48
2023-01-19T00:25:17.906Z,47
2023-01-19T00:30:19.722Z,48
2023-01-19T00:35:22.545Z,48
2023-01-19T00:40:28.543Z,48
2023-01-19T00:45:19.693Z,48
2023-01-19T00:50:16.585Z,48
2023-01-19T00:55:20.429Z,48
2023-01-19T01:00:14.460Z,48
2023-01-19T01:05:16.318Z,48
2023-01-19T01:10:18.329Z,48
2023-01-19T01:15:16.444Z,48
2023-01-19T01:20:18.280Z,48
2023-01-19T01:25:20.445Z,48
2023-01-19T01:30:16.410Z,48
2023-01-19T01:35:14.164Z,48
2023-01-19T01:40:17.961Z,48
2023-01-19T01:45:21.892Z,47
2023-01-19T01:50:15.953Z,48
2023-01-19T01:55:17.758Z,48
2023-01-19T02:00:16.603Z,48
2023-01-19T02:05:18.378Z,48
2023-01-19T02:10:22.396Z,48
2023-01-19T02:15:16.190Z,48
2023-01-19T02:20:21.940Z,48
2023-01-19T02:25:15.764Z,48
2023-01-19T02:30:24.923Z,48
2023-01-19T02:35:15.826Z,48
2023-01-19T02:40:15.648Z,47
2023-01-19T02:45:18.846Z,47
2023-01-19T02:50:13.546Z,48
2023-01-19T02:55:14.428Z,47
2023-01-19T03:00:18.241Z,47
2023-01-19T03:05:19.143Z,47
2023-01-19T03:10:16.045Z,48
2023-01-19T03:15:13.899Z,48
2023-01-19T03:20:17.695Z,48
2023-01-19T03:25:18.526Z,48
2023-01-19T03:30:18.428Z,48
2023-01-19T03:35:16.249Z,46
2023-01-19T03:40:14.169Z,48
2023-01-19T03:45:17.979Z,48
2023-01-19T03:50:17.907Z,48
2023-01-19T03:55:21.741Z,47
2023-01-19T04:00:22.974Z,48
2023-01-19T04:05:13.690Z,48
2023-01-19T04:10:16.572Z,48
2023-01-19T04:15:14.519Z,48
2023-01-19T04:20:26.263Z,48
2023-01-19T04:25:16.033Z,46
2023-01-19T04:30:13.734Z,48
2023-01-19T04:35:20.804Z,48
2023-01-19T04:40:16.662Z,48
2023-01-19T04:45:18.666Z,48
2023-01-19T04:50:26.635Z,48
2023-01-19T04:55:19.807Z,45
2023-01-19T05:00:21.868Z,49
2023-01-19T05:05:21.790Z,50
2023-01-19T05:10:13.669Z,49
2023-01-19T05:15:20.576Z,49
2023-01-19T05:20:23.392Z,49
2023-01-19T05:25:20.176Z,49
2023-01-19T05:30:18.567Z,50
2023-01-19T05:35:36.543Z,53
2023-01-19T05:40:18.591Z,52
2023-01-19T05:45:16.616Z,50
2023-01-19T05:50:20.911Z,49
2023-01-19T05:55:17.765Z,50
2023-01-19T06:00:24.690Z,49
2023-01-19T06:05:15.870Z,50
2023-01-19T06:10:17.931Z,52
2023-01-19T06:15:15.996Z,50
2023-01-19T06:20:18.127Z,51
2023-01-19T06:25:21.855Z,50
2023-01-19T06:30:24.503Z,50
2023-01-19T06:35:16.244Z,50
2023-01-19T06:40:20.267Z,51
2023-01-19T06:45:16.105Z,50
2023-01-19T06:50:17.793Z,50
2023-01-19T06:55:16.625Z,50
2023-01-19T07:00:22.811Z,49
2023-01-19T07:05:18.211Z,48
2023-01-19T07:11:26.714Z,49
2023-01-19T07:15:16.416Z,50
2023-01-19T07:20:18.426Z,49
2023-01-19T07:25:14.193Z,48
2023-01-19T07:30:16.291Z,49
2023-01-19T07:35:16.290Z,49
2023-01-19T07:40:24.167Z,49
2023-01-19T07:45:16.071Z,48
2023-01-19T07:50:13.954Z,48
2023-01-19T07:55:13.719Z,48
2023-01-19T08:00:14.937Z,48
2023-01-19T08:05:22.467Z,48
2023-01-19T08:10:14.697Z,48
2023-01-19T08:15:16.577Z,48
2023-01-19T08:20:26.750Z,48
2023-01-19T08:25:15.608Z,48
2023-01-19T08:30:19.069Z,49
2023-01-19T08:35:15.882Z,47
2023-01-19T08:40:17.783Z,48
2023-01-19T08:45:18.611Z,48
2023-01-19T08:50:16.552Z,46
2023-01-19T08:55:17.078Z,47
2023-01-19T09:00:14.116Z,47
2023-01-19T09:05:22.158Z,46
2023-01-19T09:10:18.077Z,46
2023-01-19T09:15:14.299Z,47
2023-01-19T09:20:26.206Z,47
2023-01-19T09:25:24.004Z,46
2023-01-19T09:30:15.813Z,47
2023-01-19T09:35:15.648Z,47
2023-01-19T09:40:16.914Z,47
2023-01-19T09:45:16.124Z,47
2023-01-19T09:50:15.980Z,47
2023-01-19T09:55:17.865Z,47
2023-01-19T10:00:15.811Z,47
2023-01-19T10:05:20.075Z,46
2023-01-19T10:10:13.910Z,46
2023-01-19T10:15:19.703Z,46
2023-01-19T10:20:16.994Z,46
2023-01-19T10:25:30.170Z,46
2023-01-19T10:30:18.371Z,48
2023-01-19T10:35:14.353Z,47
2023-01-19T10:40:18.564Z,48
2023-01-19T10:45:15.399Z,46
2023-01-19T10:50:22.555Z,48
2023-01-19T10:55:22.646Z,47
2023-01-19T11:00:24.246Z,47
2023-01-19T11:05:22.370Z,47
2023-01-19T11:10:21.205Z,47
2023-01-19T11:15:23.453Z,46
2023-01-19T11:20:19.066Z,46
2023-01-19T11:25:18.396Z,45
2023-01-19T11:30:18.307Z,46
2023-01-19T11:35:22.817Z,46
2023-01-19T11:40:19.762Z,46
2023-01-19T11:45:18.699Z,45
2023-01-19T11:50:18.524Z,46
2023-01-19T11:55:25.087Z,46
2023-01-19T12:00:16.049Z,46
2023-01-19T12:05:19.837Z,46
2023-01-19T12:10:17.779Z,47
2023-01-19T12:15:14.582Z,47
2023-01-19T12:20:24.709Z,46
2023-01-19T12:25:22.594Z,47
2023-01-19T12:30:18.573Z,46
2023-01-19T12:35:22.399Z,46
2023-01-19T12:40:22.557Z,45
2023-01-19T12:45:14.582Z,46
2023-01-19T12:50:16.349Z,45
2023-01-19T12:55:14.275Z,45
2023-01-19T13:00:24.291Z,45
2023-01-19T13:05:14.137Z,45
2023-01-19T13:10:17.904Z,45
2023-01-19T13:15:18.309Z,45
2023-01-19T13:20:19.022Z,45
2023-01-19T13:25:16.620Z,45
2023-01-19T13:30:20.894Z,45
2023-01-19T13:35:22.203Z,45
2023-01-19T13:40:17.008Z,45
2023-01-19T13:45:13.797Z,45
2023-01-19T13:50:15.946Z,45
2023-01-19T13:55:21.453Z,45
2023-01-19T14:00:18.749Z,45
2023-01-19T14:05:23.026Z,45
2023-01-19T14:10:21.887Z,45
2023-01-19T14:15:18.093Z,45
2023-01-19T14:20:14.533Z,45
2023-01-19T14:25:14.360Z,45
2023-01-19T14:30:20.350Z,45
2023-01-19T14:35:16.314Z,44
2023-01-19T14:40:22.340Z,44
2023-01-19T14:45:18.262Z,46
2023-01-19T14:50:22.189Z,46
2023-01-19T14:55:14.217Z,46
2023-01-19T15:00:17.628Z,45
2023-01-19T15:05:16.652Z,44
2023-01-19T15:10:18.808Z,46
2023-01-19T15:15:27.804Z,44
2023-01-19T15:20:16.055Z,46
2023-01-19T15:25:18.019Z,46
2023-01-19T15:30:15.968Z,45
2023-01-19T15:35:15.803Z,45
2023-01-19T15:40:13.684Z,46
2023-01-19T15:45:24.707Z,45
2023-01-19T15:50:14.525Z,45
2023-01-19T15:55:18.485Z,44
2023-01-19T16:00:16.405Z,45
2023-01-19T16:05:14.725Z,45
2023-01-19T16:10:28.867Z,45
2023-01-19T16:15:18.179Z,44
2023-01-19T16:20:18.209Z,45
2023-01-19T16:25:18.051Z,45
2023-01-19T16:30:15.949Z,45
2023-01-19T16:35:13.881Z,46
2023-01-19T16:40:13.929Z,45
2023-01-19T16:45:22.116Z,45
2023-01-19T16:50:14.267Z,46
2023-01-19T16:55:14.266Z,46
2023-01-19T17:00:14.348Z,46
2023-01-19T17:05:14.244Z,47
2023-01-19T17:10:14.134Z,47
2023-01-19T17:15:16.123Z,47
2023-01-19T17:20:16.278Z,47
2023-01-19T17:25:18.325Z,47
2023-01-19T17:30:16.166Z,48
2023-01-19T17:35:19.966Z,48
2023-01-19T17:40:14.602Z,47
2023-01-19T17:45:16.041Z,48
2023-01-19T17:50:16.711Z,48
2023-01-19T17:55:19.692Z,48
2023-01-19T18:00:18.885Z,47
2023-01-19T18:05:16.625Z,47
2023-01-19T18:10:17.494Z,47
2023-01-19T18:15:24.729Z,47
2023-01-19T18:20:14.443Z,49
2023-01-19T18:25:15.734Z,49
2023-01-19T18:30:18.829Z,48
2023-01-19T18:35:19.771Z,49
2023-01-19T18:40:16.679Z,48
2023-01-19T18:45:16.663Z,48
2023-01-19T18:50:16.731Z,49
2023-01-19T18:55:17.135Z,48
2023-01-19T19:00:18.124Z,48
2023-01-19T19:05:19.835Z,48
2023-01-19T19:10:19.687Z,48
2023-01-19T19:15:16.526Z,48
2023-01-19T19:20:14.992Z,47
2023-01-19T19:25:14.180Z,48
2023-01-19T19:30:22.231Z,48
2023-01-19T19:35:16.369Z,48
2023-01-19T19:40:14.780Z,48
2023-01-19T19:45:15.910Z,47
2023-01-19T19:50:15.889Z,48
2023-01-19T19:55:14.354Z,48
2023-01-19T20:00:14.881Z,47
2023-01-19T20:05:16.932Z,47
2023-01-19T20:10:15.779Z,47
2023-01-19T20:15:18.666Z,47
2023-01-19T20:20:21.630Z,47
2023-01-19T20:25:14.746Z,46
2023-01-19T20:30:20.908Z,49
2023-01-19T20:35:17.790Z,53
2023-01-19T20:40:16.905Z,49
2023-01-19T20:45:18.139Z,50
2023-01-19T20:50:19.899Z,49
2023-01-19T20:55:14.388Z,50
2023-01-19T21:00:22.848Z,50
2023-01-19T21:05:25.739Z,50
2023-01-19T21:10:28.779Z,50
2023-01-19T21:15:18.260Z,49
2023-01-19T21:20:16.110Z,49
2023-01-19T21:25:17.909Z,48
2023-01-19T21:30:14.074Z,49
2023-01-19T21:35:21.936Z,48
2023-01-19T21:40:17.893Z,49
2023-01-19T21:45:17.729Z,48
2023-01-19T21:50:22.577Z,47
2023-01-19T21:55:16.505Z,48
2023-01-19T22:00:18.471Z,48
2023-01-19T22:05:18.363Z,48
2023-01-19T22:10:18.453Z,48
2023-01-19T22:15:18.358Z,48
2023-01-19T22:20:22.327Z,48
2023-01-19T22:25:31.434Z,46
2023-01-19T22:30:16.334Z,48
2023-01-19T22:35:15.070Z,46
2023-01-19T22:40:18.405Z,47
2023-01-19T22:45:24.596Z,47
2023-01-19T22:50:16.419Z,47
2023-01-19T22:55:14.959Z,47
2023-01-19T23:00:16.441Z,46
2023-01-19T23:05:18.445Z,46
2023-01-19T23:10:14.541Z,47
2023-01-19T23:15:18.335Z,47
2023-01-19T23:20:18.276Z,47
2023-01-19T23:25:16.175Z,47
2023-01-19T23:30:16.065Z,46
2023-01-19T23:35:15.973Z,46
2023-01-19T23:40:13.746Z,46
2023-01-19T23:45:16.800Z,46
2023-01-19T23:50:15.730Z,46
2023-01-19T23:55:18.526Z,46
